sensor_id;sensor_type;location;lat;lon;timestamp;P1;durP1;ratioP1;P2;durP2;ratioP2
3873;SDS011;1952;50.872;6.692;2022-07-18T00:30:36;5.07;;;4.57;;
3873;SDS011;1952;50.872;6.692;2022-07-18T00:33:04;8.10;;;4.10;;
3873;SDS011;1952;50.872;6.692;2022-07-18T00:35:33;7.80;;;4.90;;
3873;SDS011;1952;50.872;6.692;2022-07-18T00:38:06;5.17;;;4.20;;
3873;SDS011;1952;50.872;6.692;2022-07-18T00:40:38;8.50;;;5.03;;
3873;SDS011;1952;50.872;6.692;2022-07-18T00:43:06;7.17;;;4.60;;
3873;SDS011;1952;50.872;6.692;2022-07-18T00:45:38;14.87;;;4.93;;
3873;SDS011;1952;50.872;6.692;2022-07-18T00:48:06;9.63;;;4.93;;
3873;SDS011;1952;50.872;6.692;2022-07-18T00:50:35;5.27;;;4.47;;
3873;SDS011;1952;50.872;6.692;2022-07-18T00:53:08;6.90;;;4.00;;
3873;SDS011;1952;50.872;6.692;2022-07-18T00:55:43;8.67;;;4.57;;
3873;SDS011;1952;50.872;6.692;2022-07-18T00:58:17;7.17;;;4.30;;
3873;SDS011;1952;50.872;6.692;2022-07-18T01:00:47;7.20;;;5.17;;
3873;SDS011;1952;50.872;6.692;2022-07-18T01:03:38;7.33;;;4.30;;
3873;SDS011;1952;50.872;6.692;2022-07-18T01:06:06;7.47;;;4.07;;
3873;SDS011;1952;50.872;6.692;2022-07-18T01:08:34;11.00;;;5.07;;
3873;SDS011;1952;50.872;6.692;2022-07-18T01:11:04;5.87;;;4.00;;
3873;SDS011;1952;50.872;6.692;2022-07-18T01:13:37;4.60;;;3.83;;
3873;SDS011;1952;50.872;6.692;2022-07-18T01:16:07;6.27;;;4.30;;
3873;SDS011;1952;50.872;6.692;2022-07-18T01:18:36;6.50;;;4.57;;
3873;SDS011;1952;50.872;6.692;2022-07-18T01:21:08;6.57;;;4.40;;
3873;SDS011;1952;50.872;6.692;2022-07-18T01:23:41;5.70;;;4.20;;
3873;SDS011;1952;50.872;6.692;2022-07-18T01:26:11;10.37;;;5.10;;
3873;SDS011;1952;50.872;6.692;2022-07-18T01:28:45;8.30;;;4.33;;
3873;SDS011;1952;50.872;6.692;2022-07-18T01:31:14;5.53;;;4.70;;
3873;SDS011;1952;50.872;6.692;2022-07-18T01:33:42;4.57;;;4.17;;
3873;SDS011;1952;50.872;6.692;2022-07-18T01:36:18;7.50;;;4.40;;
3873;SDS011;1952;50.872;6.692;2022-07-18T01:38:46;5.17;;;4.23;;
3873;SDS011;1952;50.872;6.692;2022-07-18T01:41:15;4.07;;;3.67;;
3873;SDS011;1952;50.872;6.692;2022-07-18T01:43:43;8.10;;;4.00;;
3873;SDS011;1952;50.872;6.692;2022-07-18T01:46:16;7.70;;;3.90;;
3873;SDS011;1952;50.872;6.692;2022-07-18T01:48:44;5.87;;;4.83;;
3873;SDS011;1952;50.872;6.692;2022-07-18T01:51:20;7.67;;;5.93;;
3873;SDS011;1952;50.872;6.692;2022-07-18T01:53:53;5.87;;;4.97;;
3873;SDS011;1952;50.872;6.692;2022-07-18T01:56:24;4.90;;;4.47;;
3873;SDS011;1952;50.872;6.692;2022-07-18T01:58:57;9.77;;;5.20;;
3873;SDS011;1952;50.872;6.692;2022-07-18T02:01:33;6.10;;;4.47;;
3873;SDS011;1952;50.872;6.692;2022-07-18T02:04:07;8.60;;;4.20;;
3873;SDS011;1952;50.872;6.692;2022-07-18T02:06:36;6.63;;;4.00;;
3873;SDS011;1952;50.872;6.692;2022-07-18T02:09:10;6.27;;;4.60;;
3873;SDS011;1952;50.872;6.692;2022-07-18T02:11:39;4.70;;;4.10;;
3873;SDS011;1952;50.872;6.692;2022-07-18T02:14:07;7.33;;;4.03;;
3873;SDS011;1952;50.872;6.692;2022-07-18T02:16:35;7.00;;;4.10;;
3873;SDS011;1952;50.872;6.692;2022-07-18T02:19:03;5.50;;;3.80;;
3873;SDS011;1952;50.872;6.692;2022-07-18T02:21:31;4.47;;;4.07;;
3873;SDS011;1952;50.872;6.692;2022-07-18T02:24:06;5.47;;;4.93;;
3873;SDS011;1952;50.872;6.692;2022-07-18T02:26:34;6.33;;;4.13;;
3873;SDS011;1952;50.872;6.692;2022-07-18T02:29:02;7.33;;;4.47;;
3873;SDS011;1952;50.872;6.692;2022-07-18T02:31:35;5.37;;;4.50;;
3873;SDS011;1952;50.872;6.692;2022-07-18T02:34:08;5.80;;;4.37;;
3873;SDS011;1952;50.872;6.692;2022-07-18T02:36:37;6.87;;;3.70;;
3873;SDS011;1952;50.872;6.692;2022-07-18T02:39:07;6.73;;;4.77;;
3873;SDS011;1952;50.872;6.692;2022-07-18T02:41:35;5.60;;;4.10;;
3873;SDS011;1952;50.872;6.692;2022-07-18T02:44:06;6.13;;;4.13;;
3873;SDS011;1952;50.872;6.692;2022-07-18T02:46:34;4.40;;;3.93;;
3873;SDS011;1952;50.872;6.692;2022-07-18T02:49:08;4.40;;;4.00;;
3873;SDS011;1952;50.872;6.692;2022-07-18T02:51:56;4.37;;;3.63;;
3873;SDS011;1952;50.872;6.692;2022-07-18T02:54:27;5.90;;;4.03;;
3873;SDS011;1952;50.872;6.692;2022-07-18T02:57:01;4.30;;;3.87;;
3873;SDS011;1952;50.872;6.692;2022-07-18T02:59:29;7.13;;;4.30;;
3873;SDS011;1952;50.872;6.692;2022-07-18T03:01:58;4.60;;;4.20;;
3873;SDS011;1952;50.872;6.692;2022-07-18T03:04:32;4.87;;;4.20;;
3873;SDS011;1952;50.872;6.692;2022-07-18T03:07:00;6.10;;;4.40;;
3873;SDS011;1952;50.872;6.692;2022-07-18T03:09:30;7.00;;;3.83;;
3873;SDS011;1952;50.872;6.692;2022-07-18T03:11:58;5.03;;;4.30;;
3873;SDS011;1952;50.872;6.692;2022-07-18T03:14:27;4.23;;;3.73;;
3873;SDS011;1952;50.872;6.692;2022-07-18T03:16:55;6.50;;;4.07;;
3873;SDS011;1952;50.872;6.692;2022-07-18T03:19:24;5.57;;;4.90;;
3873;SDS011;1952;50.872;6.692;2022-07-18T03:21:53;7.80;;;4.30;;
3873;SDS011;1952;50.872;6.692;2022-07-18T03:24:21;7.97;;;4.90;;
3873;SDS011;1952;50.872;6.692;2022-07-18T03:26:51;7.23;;;5.20;;
3873;SDS011;1952;50.872;6.692;2022-07-18T03:29:19;7.40;;;3.57;;
3873;SDS011;1952;50.872;6.692;2022-07-18T03:31:48;9.43;;;4.23;;
3873;SDS011;1952;50.872;6.692;2022-07-18T03:34:21;4.83;;;4.30;;
3873;SDS011;1952;50.872;6.692;2022-07-18T03:36:49;6.20;;;4.70;;
3873;SDS011;1952;50.872;6.692;2022-07-18T03:39:22;7.60;;;4.53;;
3873;SDS011;1952;50.872;6.692;2022-07-18T03:41:58;10.43;;;4.43;;
3873;SDS011;1952;50.872;6.692;2022-07-18T03:44:31;21.63;;;5.60;;
3873;SDS011;1952;50.872;6.692;2022-07-18T03:46:59;14.27;;;4.77;;
3873;SDS011;1952;50.872;6.692;2022-07-18T03:49:27;14.53;;;5.60;;
3873;SDS011;1952;50.872;6.692;2022-07-18T03:51:56;15.93;;;5.00;;
3873;SDS011;1952;50.872;6.692;2022-07-18T03:54:24;12.33;;;5.43;;
3873;SDS011;1952;50.872;6.692;2022-07-18T03:56:52;12.80;;;4.20;;
3873;SDS011;1952;50.872;6.692;2022-07-18T03:59:22;9.43;;;4.80;;
3873;SDS011;1952;50.872;6.692;2022-07-18T04:01:50;7.93;;;5.37;;
3873;SDS011;1952;50.872;6.692;2022-07-18T04:04:19;5.30;;;3.87;;
3873;SDS011;1952;50.872;6.692;2022-07-18T04:06:52;8.87;;;4.53;;
3873;SDS011;1952;50.872;6.692;2022-07-18T04:09:30;7.53;;;4.50;;
3873;SDS011;1952;50.872;6.692;2022-07-18T04:12:01;5.73;;;4.97;;
3873;SDS011;1952;50.872;6.692;2022-07-18T04:14:31;12.57;;;4.40;;
3873;SDS011;1952;50.872;6.692;2022-07-18T04:16:59;9.20;;;4.63;;
3873;SDS011;1952;50.872;6.692;2022-07-18T04:19:27;8.33;;;5.10;;
3873;SDS011;1952;50.872;6.692;2022-07-18T04:21:56;5.40;;;3.87;;
3873;SDS011;1952;50.872;6.692;2022-07-18T04:24:29;5.13;;;4.73;;
3873;SDS011;1952;50.872;6.692;2022-07-18T04:26:57;5.87;;;4.00;;
3873;SDS011;1952;50.872;6.692;2022-07-18T04:29:26;5.90;;;4.20;;
3873;SDS011;1952;50.872;6.692;2022-07-18T04:31:56;9.17;;;4.50;;
3873;SDS011;1952;50.872;6.692;2022-07-18T04:34:25;11.57;;;6.70;;
3873;SDS011;1952;50.872;6.692;2022-07-18T04:36:54;5.57;;;4.60;;
3873;SDS011;1952;50.872;6.692;2022-07-18T04:39:27;5.97;;;3.90;;
3873;SDS011;1952;50.872;6.692;2022-07-18T04:41:55;7.60;;;4.00;;
3873;SDS011;1952;50.872;6.692;2022-07-18T04:44:28;7.47;;;4.50;;
3873;SDS011;1952;50.872;6.692;2022-07-18T04:46:58;7.70;;;5.20;;
3873;SDS011;1952;50.872;6.692;2022-07-18T04:49:27;6.03;;;4.70;;
3873;SDS011;1952;50.872;6.692;2022-07-18T04:51:56;4.70;;;4.27;;
3873;SDS011;1952;50.872;6.692;2022-07-18T04:54:24;5.00;;;4.47;;
3873;SDS011;1952;50.872;6.692;2022-07-18T04:57:21;4.90;;;4.27;;
3873;SDS011;1952;50.872;6.692;2022-07-18T04:59:55;4.67;;;4.27;;
3873;SDS011;1952;50.872;6.692;2022-07-18T05:02:29;4.47;;;4.07;;
3873;SDS011;1952;50.872;6.692;2022-07-18T05:04:57;4.60;;;3.63;;
3873;SDS011;1952;50.872;6.692;2022-07-18T05:07:26;7.00;;;3.93;;
3873;SDS011;1952;50.872;6.692;2022-07-18T05:09:54;4.20;;;3.50;;
3873;SDS011;1952;50.872;6.692;2022-07-18T05:12:23;5.73;;;3.97;;
3873;SDS011;1952;50.872;6.692;2022-07-18T05:14:51;4.20;;;3.80;;
3873;SDS011;1952;50.872;6.692;2022-07-18T05:17:29;4.20;;;3.90;;
3873;SDS011;1952;50.872;6.692;2022-07-18T05:20:02;6.10;;;4.10;;
3873;SDS011;1952;50.872;6.692;2022-07-18T05:22:31;3.97;;;3.67;;
3873;SDS011;1952;50.872;6.692;2022-07-18T05:25:00;5.07;;;3.90;;
3873;SDS011;1952;50.872;6.692;2022-07-18T05:27:28;5.07;;;3.73;;
3873;SDS011;1952;50.872;6.692;2022-07-18T05:29:57;4.80;;;3.93;;
3873;SDS011;1952;50.872;6.692;2022-07-18T05:32:32;5.20;;;3.77;;
3873;SDS011;1952;50.872;6.692;2022-07-18T05:35:00;3.90;;;3.57;;
3873;SDS011;1952;50.872;6.692;2022-07-18T05:37:28;5.17;;;3.83;;
3873;SDS011;1952;50.872;6.692;2022-07-18T05:39:57;3.63;;;3.33;;
3873;SDS011;1952;50.872;6.692;2022-07-18T05:42:30;4.33;;;3.93;;
3873;SDS011;1952;50.872;6.692;2022-07-18T05:45:19;4.67;;;3.13;;
3873;SDS011;1952;50.872;6.692;2022-07-18T05:47:53;3.40;;;3.10;;
3873;SDS011;1952;50.872;6.692;2022-07-18T05:50:26;4.97;;;3.50;;
3873;SDS011;1952;50.872;6.692;2022-07-18T05:52:55;4.57;;;3.40;;
3873;SDS011;1952;50.872;6.692;2022-07-18T06:33:25;6.10;;;3.50;;
3873;SDS011;1952;50.872;6.692;2022-07-18T06:35:54;7.63;;;3.53;;
3873;SDS011;1952;50.872;6.692;2022-07-18T06:38:23;4.27;;;3.30;;
3873;SDS011;1952;50.872;6.692;2022-07-18T06:40:57;4.77;;;3.33;;
3873;SDS011;1952;50.872;6.692;2022-07-18T06:43:31;8.13;;;3.40;;
3873;SDS011;1952;50.872;6.692;2022-07-18T06:46:00;6.73;;;3.07;;
3873;SDS011;1952;50.872;6.692;2022-07-18T06:48:30;4.27;;;3.07;;
3873;SDS011;1952;50.872;6.692;2022-07-18T06:51:04;5.30;;;3.20;;
3873;SDS011;1952;50.872;6.692;2022-07-18T06:53:38;5.40;;;3.97;;
3873;SDS011;1952;50.872;6.692;2022-07-18T06:56:11;7.93;;;3.57;;
3873;SDS011;1952;50.872;6.692;2022-07-18T06:58:53;7.80;;;3.30;;
3873;SDS011;1952;50.872;6.692;2022-07-18T07:01:21;7.70;;;3.27;;
3873;SDS011;1952;50.872;6.692;2022-07-18T07:03:55;6.10;;;2.83;;
3873;SDS011;1952;50.872;6.692;2022-07-18T07:06:23;5.43;;;3.10;;
3873;SDS011;1952;50.872;6.692;2022-07-18T07:08:52;5.70;;;2.60;;
3873;SDS011;1952;50.872;6.692;2022-07-18T07:11:20;5.70;;;3.10;;
3873;SDS011;1952;50.872;6.692;2022-07-18T07:13:49;4.77;;;2.60;;
3873;SDS011;1952;50.872;6.692;2022-07-18T07:16:18;3.70;;;2.60;;
3873;SDS011;1952;50.872;6.692;2022-07-18T07:18:46;5.33;;;2.83;;
3873;SDS011;1952;50.872;6.692;2022-07-18T07:21:21;4.10;;;3.20;;
3873;SDS011;1952;50.872;6.692;2022-07-18T07:23:53;5.43;;;2.70;;
3873;SDS011;1952;50.872;6.692;2022-07-18T07:26:22;19.63;;;3.13;;
3873;SDS011;1952;50.872;6.692;2022-07-18T07:28:55;4.40;;;2.33;;
3873;SDS011;1952;50.872;6.692;2022-07-18T07:31:23;5.73;;;2.80;;
3873;SDS011;1952;50.872;6.692;2022-07-18T07:33:52;3.50;;;2.27;;
3873;SDS011;1952;50.872;6.692;2022-07-18T07:36:21;4.60;;;3.07;;
3873;SDS011;1952;50.872;6.692;2022-07-18T07:38:55;2.90;;;2.53;;
3873;SDS011;1952;50.872;6.692;2022-07-18T07:41:23;3.03;;;2.40;;
3873;SDS011;1952;50.872;6.692;2022-07-18T07:43:57;2.77;;;2.37;;
3873;SDS011;1952;50.872;6.692;2022-07-18T07:46:27;2.70;;;2.50;;
3873;SDS011;1952;50.872;6.692;2022-07-18T07:48:55;5.00;;;3.27;;
3873;SDS011;1952;50.872;6.692;2022-07-18T07:51:27;3.90;;;3.00;;
3873;SDS011;1952;50.872;6.692;2022-07-18T07:54:00;3.77;;;2.57;;
3873;SDS011;1952;50.872;6.692;2022-07-18T07:56:29;6.77;;;2.80;;
3873;SDS011;1952;50.872;6.692;2022-07-18T07:58:57;4.27;;;3.03;;
3873;SDS011;1952;50.872;6.692;2022-07-18T08:01:27;3.30;;;2.77;;
3873;SDS011;1952;50.872;6.692;2022-07-18T08:03:55;3.03;;;2.50;;
3873;SDS011;1952;50.872;6.692;2022-07-18T08:06:31;3.20;;;2.57;;
3873;SDS011;1952;50.872;6.692;2022-07-18T08:08:59;3.03;;;2.53;;
3873;SDS011;1952;50.872;6.692;2022-07-18T08:11:26;7.80;;;2.47;;
3873;SDS011;1952;50.872;6.692;2022-07-18T08:14:00;3.77;;;2.73;;
3873;SDS011;1952;50.872;6.692;2022-07-18T08:16:28;2.97;;;2.67;;
3873;SDS011;1952;50.872;6.692;2022-07-18T08:18:56;4.90;;;2.33;;
3873;SDS011;1952;50.872;6.692;2022-07-18T08:21:33;3.20;;;2.70;;
3873;SDS011;1952;50.872;6.692;2022-07-18T08:24:01;3.70;;;2.73;;
3873;SDS011;1952;50.872;6.692;2022-07-18T08:26:31;5.90;;;2.50;;
3873;SDS011;1952;50.872;6.692;2022-07-18T08:29:00;2.43;;;2.13;;
3873;SDS011;1952;50.872;6.692;2022-07-18T08:31:28;3.60;;;2.53;;
3873;SDS011;1952;50.872;6.692;2022-07-18T08:34:01;3.87;;;2.57;;
3873;SDS011;1952;50.872;6.692;2022-07-18T08:36:36;4.43;;;2.70;;
3873;SDS011;1952;50.872;6.692;2022-07-18T08:39:09;2.97;;;2.37;;
3873;SDS011;1952;50.872;6.692;2022-07-18T08:41:37;5.60;;;2.60;;
3873;SDS011;1952;50.872;6.692;2022-07-18T08:44:10;2.80;;;2.60;;
3873;SDS011;1952;50.872;6.692;2022-07-18T08:46:39;3.03;;;2.73;;
3873;SDS011;1952;50.872;6.692;2022-07-18T08:49:11;3.80;;;2.90;;
3873;SDS011;1952;50.872;6.692;2022-07-18T08:51:42;5.10;;;3.13;;
3873;SDS011;1952;50.872;6.692;2022-07-18T08:54:11;2.40;;;2.20;;
3873;SDS011;1952;50.872;6.692;2022-07-18T08:56:47;2.20;;;2.00;;
3873;SDS011;1952;50.872;6.692;2022-07-18T08:59:20;7.63;;;2.50;;
3873;SDS011;1952;50.872;6.692;2022-07-18T09:01:49;2.77;;;2.00;;
3873;SDS011;1952;50.872;6.692;2022-07-18T09:04:30;3.83;;;2.10;;
3873;SDS011;1952;50.872;6.692;2022-07-18T09:07:00;4.23;;;2.30;;
3873;SDS011;1952;50.872;6.692;2022-07-18T09:09:34;4.47;;;2.87;;
3873;SDS011;1952;50.872;6.692;2022-07-18T09:12:08;2.20;;;2.00;;
3873;SDS011;1952;50.872;6.692;2022-07-18T09:14:37;4.40;;;2.80;;
3873;SDS011;1952;50.872;6.692;2022-07-18T09:17:08;2.00;;;1.73;;
3873;SDS011;1952;50.872;6.692;2022-07-18T09:19:39;5.83;;;2.33;;
3873;SDS011;1952;50.872;6.692;2022-07-18T09:22:16;4.60;;;2.50;;
3873;SDS011;1952;50.872;6.692;2022-07-18T09:24:49;3.40;;;2.50;;
3873;SDS011;1952;50.872;6.692;2022-07-18T09:27:22;3.93;;;2.53;;
3873;SDS011;1952;50.872;6.692;2022-07-18T09:30:08;5.50;;;2.60;;
3873;SDS011;1952;50.872;6.692;2022-07-18T09:32:55;3.50;;;2.10;;
3873;SDS011;1952;50.872;6.692;2022-07-18T09:35:35;2.63;;;2.13;;
3873;SDS011;1952;50.872;6.692;2022-07-18T09:38:08;2.57;;;2.37;;
3873;SDS011;1952;50.872;6.692;2022-07-18T09:40:38;4.80;;;2.70;;
3873;SDS011;1952;50.872;6.692;2022-07-18T09:43:11;2.90;;;2.10;;
3873;SDS011;1952;50.872;6.692;2022-07-18T09:45:41;5.00;;;2.20;;
3873;SDS011;1952;50.872;6.692;2022-07-18T09:48:11;4.37;;;1.93;;
3873;SDS011;1952;50.872;6.692;2022-07-18T09:50:42;2.37;;;2.03;;
3873;SDS011;1952;50.872;6.692;2022-07-18T09:53:19;4.30;;;2.50;;
3873;SDS011;1952;50.872;6.692;2022-07-18T09:56:01;4.00;;;2.40;;
3873;SDS011;1952;50.872;6.692;2022-07-18T09:58:33;2.70;;;2.30;;
3873;SDS011;1952;50.872;6.692;2022-07-18T10:01:03;2.97;;;2.50;;
3873;SDS011;1952;50.872;6.692;2022-07-18T10:03:32;4.20;;;2.50;;
3873;SDS011;1952;50.872;6.692;2022-07-18T10:06:06;3.80;;;2.10;;
3873;SDS011;1952;50.872;6.692;2022-07-18T10:08:36;4.13;;;2.40;;
3873;SDS011;1952;50.872;6.692;2022-07-18T10:11:05;4.10;;;2.20;;
3873;SDS011;1952;50.872;6.692;2022-07-18T10:13:39;5.73;;;2.17;;
3873;SDS011;1952;50.872;6.692;2022-07-18T10:16:12;4.60;;;2.10;;
3873;SDS011;1952;50.872;6.692;2022-07-18T10:18:42;3.13;;;2.10;;
3873;SDS011;1952;50.872;6.692;2022-07-18T10:21:11;3.03;;;2.20;;
3873;SDS011;1952;50.872;6.692;2022-07-18T10:23:42;3.07;;;1.87;;
3873;SDS011;1952;50.872;6.692;2022-07-18T10:26:19;3.10;;;2.00;;
3873;SDS011;1952;50.872;6.692;2022-07-18T10:31:59;2.60;;;2.40;;
3873;SDS011;1952;50.872;6.692;2022-07-18T10:34:31;4.63;;;2.13;;
3873;SDS011;1952;50.872;6.692;2022-07-18T10:37:08;3.73;;;1.80;;
3873;SDS011;1952;50.872;6.692;2022-07-18T10:39:42;4.03;;;2.57;;
3873;SDS011;1952;50.872;6.692;2022-07-18T10:42:12;4.67;;;2.50;;
3873;SDS011;1952;50.872;6.692;2022-07-18T10:44:46;3.83;;;1.93;;
3873;SDS011;1952;50.872;6.692;2022-07-18T10:47:20;3.47;;;2.40;;
3873;SDS011;1952;50.872;6.692;2022-07-18T10:49:59;3.30;;;2.10;;
3873;SDS011;1952;50.872;6.692;2022-07-18T10:55:28;4.30;;;2.10;;
3873;SDS011;1952;50.872;6.692;2022-07-18T10:58:16;2.07;;;1.97;;
3873;SDS011;1952;50.872;6.692;2022-07-18T11:00:46;2.60;;;2.07;;
3873;SDS011;1952;50.872;6.692;2022-07-18T11:03:18;1.93;;;1.70;;
3873;SDS011;1952;50.872;6.692;2022-07-18T11:05:54;2.47;;;1.70;;
3873;SDS011;1952;50.872;6.692;2022-07-18T11:08:23;3.17;;;2.40;;
3873;SDS011;1952;50.872;6.692;2022-07-18T11:11:04;2.57;;;1.83;;
3873;SDS011;1952;50.872;6.692;2022-07-18T11:13:33;4.33;;;2.13;;
3873;SDS011;1952;50.872;6.692;2022-07-18T11:16:04;5.30;;;1.83;;
3873;SDS011;1952;50.872;6.692;2022-07-18T11:21:56;3.17;;;2.13;;
3873;SDS011;1952;50.872;6.692;2022-07-18T11:24:29;3.37;;;2.00;;
3873;SDS011;1952;50.872;6.692;2022-07-18T11:27:00;4.77;;;2.10;;
3873;SDS011;1952;50.872;6.692;2022-07-18T11:29:33;3.43;;;1.60;;
3873;SDS011;1952;50.872;6.692;2022-07-18T11:32:08;2.70;;;2.03;;
3873;SDS011;1952;50.872;6.692;2022-07-18T11:34:45;5.20;;;1.90;;
3873;SDS011;1952;50.872;6.692;2022-07-18T11:37:23;4.80;;;1.70;;
3873;SDS011;1952;50.872;6.692;2022-07-18T11:40:03;3.57;;;2.20;;
3873;SDS011;1952;50.872;6.692;2022-07-18T11:42:37;2.80;;;2.07;;
3873;SDS011;1952;50.872;6.692;2022-07-18T11:45:06;3.73;;;2.13;;
3873;SDS011;1952;50.872;6.692;2022-07-18T11:47:37;2.43;;;1.90;;
3873;SDS011;1952;50.872;6.692;2022-07-18T11:50:11;5.13;;;2.30;;
3873;SDS011;1952;50.872;6.692;2022-07-18T11:52:40;1.80;;;1.53;;
3873;SDS011;1952;50.872;6.692;2022-07-18T12:36:50;3.80;;;2.20;;
3873;SDS011;1952;50.872;6.692;2022-07-18T12:39:26;2.27;;;1.80;;
3873;SDS011;1952;50.872;6.692;2022-07-18T12:42:10;2.93;;;1.90;;
3873;SDS011;1952;50.872;6.692;2022-07-18T12:44:58;3.03;;;2.10;;
3873;SDS011;1952;50.872;6.692;2022-07-18T12:47:30;4.63;;;2.20;;
3873;SDS011;1952;50.872;6.692;2022-07-18T12:50:05;2.57;;;2.40;;
3873;SDS011;1952;50.872;6.692;2022-07-18T12:52:40;2.73;;;1.97;;
3873;SDS011;1952;50.872;6.692;2022-07-18T12:55:08;3.37;;;3.07;;
3873;SDS011;1952;50.872;6.692;2022-07-18T12:57:37;3.00;;;2.53;;
3873;SDS011;1952;50.872;6.692;2022-07-18T13:00:05;5.43;;;2.03;;
3873;SDS011;1952;50.872;6.692;2022-07-18T13:02:39;3.47;;;2.10;;
3873;SDS011;1952;50.872;6.692;2022-07-18T13:05:14;4.93;;;2.40;;
3873;SDS011;1952;50.872;6.692;2022-07-18T13:07:42;7.23;;;2.30;;
3873;SDS011;1952;50.872;6.692;2022-07-18T13:10:11;2.17;;;2.00;;
3873;SDS011;1952;50.872;6.692;2022-07-18T13:12:45;2.87;;;2.00;;
3873;SDS011;1952;50.872;6.692;2022-07-18T13:15:13;5.13;;;2.40;;
3873;SDS011;1952;50.872;6.692;2022-07-18T13:17:42;2.30;;;2.10;;
3873;SDS011;1952;50.872;6.692;2022-07-18T13:20:26;2.50;;;2.20;;
3873;SDS011;1952;50.872;6.692;2022-07-18T13:22:56;2.93;;;1.93;;
3873;SDS011;1952;50.872;6.692;2022-07-18T13:25:27;2.47;;;2.27;;
3873;SDS011;1952;50.872;6.692;2022-07-18T13:27:56;3.03;;;2.00;;
3873;SDS011;1952;50.872;6.692;2022-07-18T13:30:29;3.00;;;2.00;;
3873;SDS011;1952;50.872;6.692;2022-07-18T13:33:03;3.70;;;2.47;;
3873;SDS011;1952;50.872;6.692;2022-07-18T13:35:33;3.20;;;2.17;;
3873;SDS011;1952;50.872;6.692;2022-07-18T13:38:01;2.83;;;2.50;;
3873;SDS011;1952;50.872;6.692;2022-07-18T13:40:34;7.87;;;2.13;;
3873;SDS011;1952;50.872;6.692;2022-07-18T13:43:03;8.20;;;2.30;;
3873;SDS011;1952;50.872;6.692;2022-07-18T13:45:31;2.10;;;2.00;;
3873;SDS011;1952;50.872;6.692;2022-07-18T13:48:05;3.97;;;2.40;;
3873;SDS011;1952;50.872;6.692;2022-07-18T13:50:40;3.07;;;2.80;;
3873;SDS011;1952;50.872;6.692;2022-07-18T13:53:22;2.40;;;2.20;;
3873;SDS011;1952;50.872;6.692;2022-07-18T13:55:50;2.60;;;1.97;;
3873;SDS011;1952;50.872;6.692;2022-07-18T13:58:23;4.53;;;2.53;;
3873;SDS011;1952;50.872;6.692;2022-07-18T14:00:51;2.90;;;2.00;;
3873;SDS011;1952;50.872;6.692;2022-07-18T14:03:25;6.23;;;2.80;;
3873;SDS011;1952;50.872;6.692;2022-07-18T14:05:55;3.83;;;1.93;;
3873;SDS011;1952;50.872;6.692;2022-07-18T14:08:23;2.90;;;2.37;;
3873;SDS011;1952;50.872;6.692;2022-07-18T14:10:51;4.47;;;2.40;;
3873;SDS011;1952;50.872;6.692;2022-07-18T14:13:20;3.27;;;1.80;;
3873;SDS011;1952;50.872;6.692;2022-07-18T14:15:50;4.10;;;2.07;;
3873;SDS011;1952;50.872;6.692;2022-07-18T14:18:18;3.93;;;2.23;;
3873;SDS011;1952;50.872;6.692;2022-07-18T14:20:52;2.60;;;2.27;;
3873;SDS011;1952;50.872;6.692;2022-07-18T14:23:26;2.30;;;2.10;;
3873;SDS011;1952;50.872;6.692;2022-07-18T14:25:54;2.40;;;2.20;;
3873;SDS011;1952;50.872;6.692;2022-07-18T14:28:27;3.10;;;2.30;;
3873;SDS011;1952;50.872;6.692;2022-07-18T14:30:55;6.20;;;2.73;;
3873;SDS011;1952;50.872;6.692;2022-07-18T14:33:23;2.30;;;1.80;;
3873;SDS011;1952;50.872;6.692;2022-07-18T14:35:54;5.83;;;2.77;;
3873;SDS011;1952;50.872;6.692;2022-07-18T14:38:22;3.93;;;2.20;;
3873;SDS011;1952;50.872;6.692;2022-07-18T14:40:52;5.50;;;3.70;;
3873;SDS011;1952;50.872;6.692;2022-07-18T14:43:20;3.60;;;2.50;;
3873;SDS011;1952;50.872;6.692;2022-07-18T14:45:48;4.50;;;2.07;;
3873;SDS011;1952;50.872;6.692;2022-07-18T14:48:22;2.37;;;2.17;;
3873;SDS011;1952;50.872;6.692;2022-07-18T14:50:51;3.43;;;2.50;;
3873;SDS011;1952;50.872;6.692;2022-07-18T14:53:19;4.23;;;2.60;;
3873;SDS011;1952;50.872;6.692;2022-07-18T14:55:53;5.73;;;2.60;;
3873;SDS011;1952;50.872;6.692;2022-07-18T14:58:21;3.37;;;2.57;;
3873;SDS011;1952;50.872;6.692;2022-07-18T15:00:54;4.37;;;2.00;;
3873;SDS011;1952;50.872;6.692;2022-07-18T15:03:23;3.00;;;2.47;;
3873;SDS011;1952;50.872;6.692;2022-07-18T15:06:12;3.70;;;2.43;;
3873;SDS011;1952;50.872;6.692;2022-07-18T15:08:45;3.53;;;2.20;;
3873;SDS011;1952;50.872;6.692;2022-07-18T15:11:16;2.80;;;2.03;;
3873;SDS011;1952;50.872;6.692;2022-07-18T15:13:47;5.97;;;2.53;;
3873;SDS011;1952;50.872;6.692;2022-07-18T15:16:20;5.10;;;2.20;;
3873;SDS011;1952;50.872;6.692;2022-07-18T15:19:03;5.30;;;2.40;;
3873;SDS011;1952;50.872;6.692;2022-07-18T15:21:31;5.47;;;2.10;;
3873;SDS011;1952;50.872;6.692;2022-07-18T15:24:00;4.73;;;2.30;;
3873;SDS011;1952;50.872;6.692;2022-07-18T15:26:34;5.33;;;2.53;;
3873;SDS011;1952;50.872;6.692;2022-07-18T15:29:03;4.50;;;2.40;;
3873;SDS011;1952;50.872;6.692;2022-07-18T15:31:33;2.40;;;2.10;;
3873;SDS011;1952;50.872;6.692;2022-07-18T15:34:02;4.80;;;2.63;;
3873;SDS011;1952;50.872;6.692;2022-07-18T15:36:31;2.73;;;1.87;;
3873;SDS011;1952;50.872;6.692;2022-07-18T15:39:04;2.90;;;2.20;;
3873;SDS011;1952;50.872;6.692;2022-07-18T15:41:32;2.43;;;2.23;;
3873;SDS011;1952;50.872;6.692;2022-07-18T15:44:06;6.53;;;2.13;;
3873;SDS011;1952;50.872;6.692;2022-07-18T15:46:36;2.73;;;2.50;;
3873;SDS011;1952;50.872;6.692;2022-07-18T15:49:05;6.60;;;2.30;;
3873;SDS011;1952;50.872;6.692;2022-07-18T15:51:33;3.40;;;2.13;;
3873;SDS011;1952;50.872;6.692;2022-07-18T15:54:02;2.73;;;2.33;;
3873;SDS011;1952;50.872;6.692;2022-07-18T15:56:40;2.43;;;2.20;;
3873;SDS011;1952;50.872;6.692;2022-07-18T15:59:13;2.80;;;2.23;;
3873;SDS011;1952;50.872;6.692;2022-07-18T16:01:41;5.20;;;1.90;;
3873;SDS011;1952;50.872;6.692;2022-07-18T16:04:15;1.87;;;1.77;;
3873;SDS011;1952;50.872;6.692;2022-07-18T16:06:44;2.33;;;2.10;;
3873;SDS011;1952;50.872;6.692;2022-07-18T16:09:13;3.30;;;2.30;;
3873;SDS011;1952;50.872;6.692;2022-07-18T16:11:42;4.50;;;2.10;;
3873;SDS011;1952;50.872;6.692;2022-07-18T16:14:15;3.00;;;2.10;;
3873;SDS011;1952;50.872;6.692;2022-07-18T16:16:45;3.87;;;2.23;;
3873;SDS011;1952;50.872;6.692;2022-07-18T16:19:13;4.80;;;1.90;;
3873;SDS011;1952;50.872;6.692;2022-07-18T16:21:41;5.53;;;2.10;;
3873;SDS011;1952;50.872;6.692;2022-07-18T16:24:10;4.67;;;2.37;;
3873;SDS011;1952;50.872;6.692;2022-07-18T16:26:45;4.80;;;2.07;;
3873;SDS011;1952;50.872;6.692;2022-07-18T16:29:13;9.73;;;2.27;;
3873;SDS011;1952;50.872;6.692;2022-07-18T16:31:44;6.07;;;2.80;;
3873;SDS011;1952;50.872;6.692;2022-07-18T16:34:12;4.00;;;2.63;;
3873;SDS011;1952;50.872;6.692;2022-07-18T16:36:41;4.40;;;3.90;;
3873;SDS011;1952;50.872;6.692;2022-07-18T16:39:14;4.73;;;2.73;;
3873;SDS011;1952;50.872;6.692;2022-07-18T16:41:43;3.70;;;2.03;;
3873;SDS011;1952;50.872;6.692;2022-07-18T16:44:22;4.40;;;2.47;;
3873;SDS011;1952;50.872;6.692;2022-07-18T16:46:55;4.33;;;2.10;;
3873;SDS011;1952;50.872;6.692;2022-07-18T16:49:24;7.20;;;2.07;;
3873;SDS011;1952;50.872;6.692;2022-07-18T16:51:53;5.93;;;2.27;;
3873;SDS011;1952;50.872;6.692;2022-07-18T16:54:23;8.93;;;2.10;;
3873;SDS011;1952;50.872;6.692;2022-07-18T16:56:52;2.63;;;1.90;;
3873;SDS011;1952;50.872;6.692;2022-07-18T16:59:21;7.10;;;2.70;;
3873;SDS011;1952;50.872;6.692;2022-07-18T17:01:50;6.50;;;2.77;;
3873;SDS011;1952;50.872;6.692;2022-07-18T17:04:24;4.07;;;2.20;;
3873;SDS011;1952;50.872;6.692;2022-07-18T17:06:53;3.97;;;2.10;;
3873;SDS011;1952;50.872;6.692;2022-07-18T17:09:21;2.67;;;1.97;;
3873;SDS011;1952;50.872;6.692;2022-07-18T17:11:57;4.10;;;2.07;;
3873;SDS011;1952;50.872;6.692;2022-07-18T17:14:25;3.07;;;2.03;;
3873;SDS011;1952;50.872;6.692;2022-07-18T17:16:53;4.10;;;2.27;;
3873;SDS011;1952;50.872;6.692;2022-07-18T17:19:22;6.00;;;2.47;;
3873;SDS011;1952;50.872;6.692;2022-07-18T17:21:51;4.83;;;2.10;;
3873;SDS011;1952;50.872;6.692;2022-07-18T17:24:21;5.10;;;2.40;;
3873;SDS011;1952;50.872;6.692;2022-07-18T17:26:49;6.43;;;2.40;;
3873;SDS011;1952;50.872;6.692;2022-07-18T17:29:20;6.00;;;3.07;;
3873;SDS011;1952;50.872;6.692;2022-07-18T17:31:49;3.47;;;2.20;;
3873;SDS011;1952;50.872;6.692;2022-07-18T17:34:22;7.20;;;2.40;;
3873;SDS011;1952;50.872;6.692;2022-07-18T17:36:51;5.67;;;2.27;;
3873;SDS011;1952;50.872;6.692;2022-07-18T17:39:22;3.60;;;2.13;;